createdAt,value
2022-10-05T00:01:30.876Z,8.38
2022-10-05T00:04:17.389Z,7.40
2022-10-05T00:06:51.327Z,8.25
2022-10-05T00:09:21.886Z,6.60
2022-10-05T00:11:51.534Z,6.28
2022-10-05T00:14:38.338Z,6.93
2022-10-05T00:17:06.692Z,6.90
2022-10-05T00:19:37.726Z,6.68
2022-10-05T00:22:20.898Z,6.20
2022-10-05T00:24:52.402Z,5.38
2022-10-05T00:27:39.267Z,4.38
2022-10-05T00:30:21.712Z,4.60
2022-10-05T00:32:50.508Z,6.13
2022-10-05T00:35:19.938Z,5.68
2022-10-05T00:37:53.611Z,6.38
2022-10-05T00:40:58.149Z,6.65
2022-10-05T00:44:09.853Z,4.93
2022-10-05T00:46:56.737Z,5.35
2022-10-05T00:49:51.495Z,5.38
2022-10-05T00:52:31.674Z,4.95
2022-10-05T00:54:59.804Z,6.60
2022-10-05T00:57:27.903Z,4.88
2022-10-05T01:00:08.709Z,4.07
2022-10-05T01:03:02.693Z,4.28
2022-10-05T01:05:45.824Z,4.78
2022-10-05T01:08:40.197Z,4.28
2022-10-05T01:11:21.218Z,4.30
2022-10-05T01:14:08.203Z,4.82
2022-10-05T01:17:00.450Z,4.70
2022-10-05T01:19:43.866Z,4.50
2022-10-05T01:25:01.835Z,3.97
2022-10-05T01:27:47.926Z,4.65
2022-10-05T01:30:19.278Z,5.28
2022-10-05T01:35:47.830Z,4.03
2022-10-05T01:38:19.002Z,4.70
2022-10-05T01:41:03.796Z,5.07
2022-10-05T01:43:41.434Z,4.40
2022-10-05T01:49:13.702Z,5.50
2022-10-05T01:52:07.986Z,4.68
2022-10-05T01:54:36.095Z,4.57
2022-10-05T01:57:10.121Z,4.22
2022-10-05T01:59:41.214Z,4.57
2022-10-05T02:02:17.219Z,4.70
2022-10-05T02:05:02.140Z,5.18
2022-10-05T02:07:39.089Z,5.82
2022-10-05T02:10:23.639Z,5.13
2022-10-05T02:12:57.208Z,4.88
2022-10-05T02:15:42.743Z,4.43
2022-10-05T02:18:15.111Z,4.30
2022-10-05T02:20:45.090Z,4.47
2022-10-05T02:23:21.394Z,4.50
2022-10-05T02:25:52.198Z,3.75
2022-10-05T02:28:27.257Z,4.93
2022-10-05T02:31:03.918Z,5.15
2022-10-05T02:33:34.107Z,4.18
2022-10-05T02:36:35.586Z,4.20
2022-10-05T02:42:36.643Z,3.80
2022-10-05T02:45:10.841Z,7.28
2022-10-05T02:48:08.418Z,5.00
2022-10-05T02:50:45.553Z,4.80
2022-10-05T02:53:31.519Z,4.72
2022-10-05T02:56:17.986Z,4.70
2022-10-05T02:58:55.034Z,4.60
2022-10-05T03:01:34.719Z,4.18
2022-10-05T03:04:06.080Z,5.50
2022-10-05T03:06:42.570Z,4.82
2022-10-05T03:09:11.165Z,6.07
2022-10-05T03:11:58.880Z,4.38
2022-10-05T03:14:34.831Z,4.97
2022-10-05T03:17:54.870Z,4.63
2022-10-05T03:20:48.804Z,4.18
2022-10-05T03:23:40.119Z,5.47
2022-10-05T03:26:29.680Z,5.30
2022-10-05T03:29:26.520Z,4.30
2022-10-05T03:32:13.393Z,4.70
2022-10-05T03:35:10.833Z,5.00
2022-10-05T03:38:16.928Z,4.55
2022-10-05T03:41:01.360Z,5.47
2022-10-05T03:44:07.300Z,5.68
2022-10-05T03:46:46.006Z,4.20
2022-10-05T03:49:23.696Z,5.18
2022-10-05T03:54:31.387Z,4.32
2022-10-05T03:57:10.967Z,5.40
2022-10-05T04:00:04.673Z,5.15
2022-10-05T04:03:19.827Z,4.45
2022-10-05T04:05:56.709Z,5.13
2022-10-05T04:09:00.721Z,4.20
2022-10-05T04:11:59.042Z,5.30
2022-10-05T04:14:49.886Z,4.55
2022-10-05T04:17:28.081Z,5.00
2022-10-05T04:20:27.753Z,5.15
2022-10-05T04:23:05.807Z,5.13
2022-10-05T04:25:49.676Z,5.18
2022-10-05T04:31:03.057Z,4.60
2022-10-05T04:34:01.515Z,5.85
2022-10-05T04:36:40.285Z,4.47
2022-10-05T04:39:14.512Z,5.85
2022-10-05T04:41:56.297Z,6.03
2022-10-05T04:44:43.630Z,5.45
2022-10-05T04:47:31.134Z,5.38
2022-10-05T04:50:31.462Z,5.47
2022-10-05T04:53:34.459Z,4.15
2022-10-05T04:56:18.415Z,6.00
2022-10-05T04:59:06.387Z,5.10
2022-10-05T05:01:40.506Z,5.85
2022-10-05T05:04:11.919Z,4.95
2022-10-05T05:06:55.837Z,5.82
2022-10-05T05:09:26.714Z,4.72
2022-10-05T05:11:58.110Z,5.75
2022-10-05T05:14:42.045Z,4.80
2022-10-05T05:17:22.980Z,7.07
2022-10-05T05:20:21.338Z,4.97
2022-10-05T05:23:06.298Z,6.07
2022-10-05T05:25:57.877Z,6.38
2022-10-05T05:28:46.118Z,5.82
2022-10-05T05:31:59.229Z,6.45
2022-10-05T05:35:32.063Z,5.35
2022-10-05T05:38:28.128Z,5.95
2022-10-05T05:41:22.858Z,5.07
2022-10-05T05:43:53.691Z,5.35
2022-10-05T05:46:58.292Z,5.55
2022-10-05T05:50:02.918Z,5.28
2022-10-05T05:52:49.994Z,5.97
2022-10-05T05:58:00.923Z,5.63
2022-10-05T06:00:38.083Z,5.78
2022-10-05T06:03:41.714Z,3.95
2022-10-05T06:06:15.231Z,7.75
2022-10-05T06:09:07.277Z,5.10
2022-10-05T06:11:43.389Z,4.28
2022-10-05T06:14:18.776Z,5.35
2022-10-05T06:17:01.346Z,6.63
2022-10-05T06:19:49.966Z,5.00
2022-10-05T06:22:24.975Z,6.93
2022-10-05T06:25:16.417Z,5.53
2022-10-05T06:28:16.386Z,4.53
2022-10-05T06:31:19.042Z,5.18
2022-10-05T06:34:38.922Z,4.55
2022-10-05T06:37:18.131Z,7.05
2022-10-05T06:40:12.399Z,4.25
2022-10-05T06:43:19.303Z,5.18
2022-10-05T06:46:29.325Z,4.85
2022-10-05T06:49:35.782Z,5.72
2022-10-05T06:52:35.887Z,6.47
2022-10-05T06:55:14.348Z,5.43
2022-10-05T06:58:01.114Z,6.72
2022-10-05T07:00:52.376Z,4.97
2022-10-05T07:03:49.273Z,5.07
2022-10-05T07:06:34.532Z,4.18
2022-10-05T07:09:18.656Z,5.20
2022-10-05T07:12:17.558Z,5.78
2022-10-05T07:15:19.903Z,5.05
2022-10-05T07:20:27.306Z,5.53
2022-10-05T07:23:22.711Z,4.90
2022-10-05T07:25:51.706Z,5.20
2022-10-05T07:28:40.531Z,5.30
2022-10-05T07:31:31.398Z,5.47
2022-10-05T07:34:21.571Z,5.25
2022-10-05T07:37:24.714Z,5.43
2022-10-05T07:40:19.781Z,5.75
2022-10-05T07:43:15.631Z,5.85
2022-10-05T07:45:48.366Z,4.72
2022-10-05T07:48:43.629Z,5.85
2022-10-05T07:51:11.626Z,5.70
2022-10-05T07:53:52.146Z,5.05
2022-10-05T07:56:37.034Z,4.70
2022-10-05T07:59:13.943Z,5.45
2022-10-05T08:04:19.934Z,5.53
2022-10-05T08:06:53.098Z,5.13
2022-10-05T08:09:39.409Z,5.10
2022-10-05T08:12:38.282Z,5.75
2022-10-05T08:15:15.806Z,5.00
2022-10-05T08:18:10.413Z,5.68
2022-10-05T08:20:48.711Z,6.10
2022-10-05T08:23:42.802Z,6.00
2022-10-05T08:26:25.616Z,6.65
2022-10-05T08:29:07.377Z,6.35
2022-10-05T08:31:41.092Z,6.20
2022-10-05T08:34:31.251Z,7.18
2022-10-05T08:37:13.826Z,6.03
2022-10-05T08:39:58.669Z,7.55
2022-10-05T08:42:53.567Z,6.03
2022-10-05T08:48:38.845Z,7.70
2022-10-05T08:51:41.820Z,6.85
2022-10-05T08:54:31.750Z,7.35
2022-10-05T08:57:24.665Z,6.53
2022-10-05T09:00:24.550Z,7.82
2022-10-05T09:03:17.167Z,7.05
2022-10-05T09:06:19.117Z,7.10
2022-10-05T09:09:06.548Z,6.57
2022-10-05T09:11:50.998Z,6.80
2022-10-05T09:14:33.911Z,7.35
2022-10-05T09:17:17.757Z,7.72
2022-10-05T09:19:52.050Z,7.82
2022-10-05T09:22:59.474Z,7.43
2022-10-05T09:25:36.042Z,6.82
2022-10-05T09:28:40.807Z,7.72
2022-10-05T09:31:34.678Z,7.88
2022-10-05T09:34:27.359Z,7.72
2022-10-05T09:37:08.883Z,8.52
2022-10-05T09:40:07.423Z,7.75
2022-10-05T09:43:01.983Z,8.02
2022-10-05T09:46:03.586Z,7.25
2022-10-05T09:49:09.150Z,8.07
2022-10-05T09:51:55.343Z,7.60
2022-10-05T09:54:57.190Z,9.10
2022-10-05T09:57:59.793Z,7.40
2022-10-05T10:00:59.564Z,6.60
2022-10-05T10:04:14.625Z,7.95
2022-10-05T10:07:03.898Z,7.32
2022-10-05T10:09:39.834Z,7.70
2022-10-05T10:12:33.138Z,8.45
2022-10-05T10:15:14.704Z,7.80
2022-10-05T10:18:08.986Z,8.00
2022-10-05T10:20:39.822Z,7.60
2022-10-05T10:23:19.405Z,9.77
2022-10-05T10:26:08.621Z,8.10
2022-10-05T10:28:52.524Z,8.00
2022-10-05T10:31:58.969Z,8.13
2022-10-05T10:34:45.261Z,8.57
2022-10-05T10:37:50.215Z,7.55
2022-10-05T10:40:20.921Z,8.30
2022-10-05T10:43:30.248Z,8.45
2022-10-05T10:46:50.085Z,8.30
2022-10-05T10:49:46.021Z,8.30
2022-10-05T10:52:54.174Z,8.23
2022-10-05T10:55:42.463Z,8.13
2022-10-05T10:58:45.975Z,9.40
2022-10-05T11:01:37.132Z,7.18
2022-10-05T11:07:32.109Z,8.50
2022-10-05T11:10:00.050Z,8.40
2022-10-05T11:12:46.283Z,8.25
2022-10-05T11:15:14.250Z,7.70
2022-10-05T11:17:51.067Z,8.30
2022-10-05T11:20:39.557Z,7.80
2022-10-05T11:23:38.835Z,8.05
2022-10-05T11:26:28.108Z,7.22
2022-10-05T11:29:23.824Z,8.25
2022-10-05T11:32:29.881Z,7.55
2022-10-05T11:35:59.558Z,7.20
2022-10-05T11:38:55.361Z,8.05
2022-10-05T11:41:23.479Z,7.15
2022-10-05T11:47:18.412Z,8.25
2022-10-05T11:49:53.855Z,8.15
2022-10-05T11:52:30.653Z,7.97
2022-10-05T11:55:17.213Z,9.07
2022-10-05T11:58:01.852Z,8.27
2022-10-05T12:00:40.937Z,9.05
2022-10-05T12:03:36.809Z,8.52
2022-10-05T12:06:14.674Z,9.75
2022-10-05T12:08:57.696Z,7.78
2022-10-05T12:11:58.820Z,8.85
2022-10-05T12:14:41.938Z,8.65
2022-10-05T12:17:28.652Z,7.18
2022-10-05T12:20:07.074Z,6.88
2022-10-05T12:22:46.937Z,8.82
2022-10-05T12:25:36.214Z,8.43
2022-10-05T12:28:13.426Z,8.80
2022-10-05T12:31:17.747Z,7.78
2022-10-05T12:34:00.098Z,7.35
2022-10-05T12:36:59.664Z,8.88
2022-10-05T12:42:38.094Z,7.45
2022-10-05T12:45:15.107Z,7.45
2022-10-05T12:48:05.007Z,7.97
2022-10-05T12:50:42.441Z,8.52
2022-10-05T12:53:54.985Z,7.32
2022-10-05T12:56:51.300Z,8.02
2022-10-05T12:59:42.345Z,9.10
2022-10-05T13:02:34.255Z,7.15
2022-10-05T13:05:26.839Z,8.27
2022-10-05T13:08:07.630Z,9.35
2022-10-05T13:11:02.254Z,8.50
2022-10-05T13:13:59.365Z,6.97
2022-10-05T13:16:54.812Z,8.02
2022-10-05T13:19:39.543Z,8.70
2022-10-05T13:22:10.043Z,8.13
2022-10-05T13:25:28.755Z,9.00
2022-10-05T13:28:13.467Z,9.23
2022-10-05T13:30:50.968Z,8.30
2022-10-05T13:33:25.415Z,8.70
2022-10-05T13:36:04.335Z,7.50
2022-10-05T13:38:57.253Z,7.80
2022-10-05T13:41:40.060Z,8.63
2022-10-05T13:47:17.125Z,9.00
2022-10-05T13:49:55.129Z,8.70
2022-10-05T13:53:10.265Z,7.90
2022-10-05T13:55:49.951Z,8.55
2022-10-05T13:58:24.436Z,8.32
2022-10-05T14:01:22.720Z,8.60
2022-10-05T14:04:10.422Z,8.10
2022-10-05T14:06:39.526Z,8.82
2022-10-05T14:09:26.662Z,6.85
2022-10-05T14:12:12.674Z,7.40
2022-10-05T14:14:47.260Z,9.35
2022-10-05T14:17:38.511Z,7.60
2022-10-05T14:20:26.538Z,8.93
2022-10-05T14:23:17.238Z,8.48
2022-10-05T14:25:54.191Z,8.90
2022-10-05T14:28:33.880Z,7.15
2022-10-05T14:31:15.667Z,8.20
2022-10-05T14:33:43.919Z,8.05
2022-10-05T14:36:22.382Z,8.48
2022-10-05T14:38:58.094Z,8.32
2022-10-05T14:41:27.753Z,7.80
2022-10-05T14:44:17.786Z,8.73
2022-10-05T14:47:02.795Z,7.22
2022-10-05T14:49:37.596Z,8.45
2022-10-05T14:52:32.728Z,9.00
2022-10-05T14:55:24.127Z,9.15
2022-10-05T14:58:17.316Z,8.18
2022-10-05T15:00:58.802Z,10.45
2022-10-05T15:03:43.700Z,8.68
2022-10-05T15:06:41.366Z,8.10
2022-10-05T15:09:24.877Z,8.85
2022-10-05T15:11:58.625Z,8.90
2022-10-05T15:14:35.117Z,8.05
2022-10-05T15:17:28.686Z,8.13
2022-10-05T15:20:24.710Z,8.65
2022-10-05T15:23:24.839Z,8.15
2022-10-05T15:26:01.613Z,6.97
2022-10-05T15:28:48.648Z,8.27
2022-10-05T15:31:49.044Z,8.63
2022-10-05T15:34:23.862Z,8.23
2022-10-05T15:37:17.755Z,8.50
2022-10-05T15:40:02.800Z,8.25
2022-10-05T15:42:38.841Z,7.22
2022-10-05T15:45:34.373Z,7.72
2022-10-05T15:48:29.315Z,8.80
2022-10-05T15:51:24.576Z,7.75
2022-10-05T15:54:21.277Z,8.00
2022-10-05T15:57:16.473Z,8.20
2022-10-05T16:00:04.958Z,8.00
2022-10-05T16:02:36.074Z,8.07
2022-10-05T16:09:06.618Z,8.00
2022-10-05T16:11:51.283Z,9.25
2022-10-05T16:14:22.142Z,9.15
2022-10-05T16:17:01.241Z,7.25
2022-10-05T16:19:34.588Z,8.18
2022-10-05T16:22:22.004Z,6.78
2022-10-05T16:24:50.045Z,9.52
2022-10-05T16:27:55.520Z,7.97
2022-10-05T16:30:24.645Z,9.63
2022-10-05T16:33:29.439Z,7.70
2022-10-05T16:36:23.514Z,8.98
2022-10-05T16:39:07.291Z,7.75
2022-10-05T16:42:00.413Z,7.57
2022-10-05T16:44:37.321Z,8.25
2022-10-05T16:47:32.771Z,8.68
2022-10-05T16:50:28.111Z,7.50
2022-10-05T16:53:15.341Z,9.07
2022-10-05T16:55:49.262Z,7.57
2022-10-05T16:58:56.282Z,8.18
2022-10-05T17:04:58.258Z,7.30
2022-10-05T17:07:35.373Z,7.68
2022-10-05T17:10:06.082Z,6.80
2022-10-05T17:13:23.200Z,6.75
2022-10-05T17:15:57.045Z,9.02
2022-10-05T17:18:50.725Z,7.68
2022-10-05T17:21:24.761Z,7.25
2022-10-05T17:24:06.474Z,7.45
2022-10-05T17:26:34.391Z,8.60
2022-10-05T17:29:28.370Z,7.90
2022-10-05T17:32:08.677Z,8.07
2022-10-05T17:35:00.810Z,7.55
2022-10-05T17:37:35.924Z,7.72
2022-10-05T17:40:41.319Z,7.90
2022-10-05T17:43:14.986Z,7.50
2022-10-05T17:45:42.926Z,7.47
2022-10-05T17:48:13.056Z,7.43
2022-10-05T17:51:07.446Z,7.18
2022-10-05T17:53:56.497Z,7.38
2022-10-05T17:56:24.686Z,8.10
2022-10-05T17:58:56.537Z,7.70
2022-10-05T18:01:38.750Z,6.90
2022-10-05T18:04:12.897Z,10.30
2022-10-05T18:07:06.054Z,9.23
2022-10-05T18:09:37.784Z,7.22
2022-10-05T18:12:18.195Z,7.90
2022-10-05T18:15:05.817Z,6.78
2022-10-05T18:17:45.545Z,6.28
2022-10-05T18:20:31.793Z,7.78
2022-10-05T18:23:09.903Z,8.68
2022-10-05T18:26:05.841Z,7.47
2022-10-05T18:28:56.726Z,6.80
2022-10-05T18:31:40.339Z,6.25
2022-10-05T18:34:37.939Z,8.18
2022-10-05T18:37:16.399Z,6.95
2022-10-05T18:39:44.380Z,9.35
2022-10-05T18:42:27.397Z,8.85
2022-10-05T18:45:12.181Z,8.00
2022-10-05T18:47:48.250Z,8.60
2022-10-05T18:51:10.183Z,8.68
2022-10-05T18:53:46.113Z,8.70
2022-10-05T18:56:20.199Z,7.25
2022-10-05T18:59:14.556Z,6.72
2022-10-05T19:01:59.960Z,7.55
2022-10-05T19:04:51.410Z,8.70
2022-10-05T19:07:41.013Z,7.40
2022-10-05T19:10:40.822Z,8.02
2022-10-05T19:13:44.985Z,6.90
2022-10-05T19:16:37.633Z,8.05
2022-10-05T19:19:44.283Z,8.23
2022-10-05T19:22:25.153Z,7.90
2022-10-05T19:25:21.207Z,7.55
2022-10-05T19:28:27.001Z,8.30
2022-10-05T19:31:04.076Z,8.25
2022-10-05T19:33:37.831Z,8.15
2022-10-05T19:36:29.279Z,8.80
2022-10-05T19:39:19.478Z,7.55
2022-10-05T19:42:36.900Z,6.78
2022-10-05T19:45:07.583Z,7.60
2022-10-05T19:50:57.658Z,7.63
2022-10-05T19:53:37.273Z,8.80
2022-10-05T19:56:21.131Z,7.22
2022-10-05T19:58:50.506Z,8.10
2022-10-05T20:01:40.335Z,8.45
2022-10-05T20:04:10.798Z,7.13
2022-10-05T20:06:39.923Z,7.88
2022-10-05T20:09:22.041Z,8.93
2022-10-05T20:11:51.506Z,8.10
2022-10-05T20:14:21.895Z,7.00
2022-10-05T20:17:44.838Z,7.40
2022-10-05T20:20:45.861Z,6.40
2022-10-05T20:23:30.680Z,7.43
2022-10-05T20:26:17.138Z,7.30
2022-10-05T20:28:45.804Z,7.65
2022-10-05T20:31:14.806Z,8.10
2022-10-05T20:33:42.756Z,8.18
2022-10-05T20:36:10.657Z,7.63
2022-10-05T20:38:41.068Z,7.20
2022-10-05T20:41:09.734Z,7.63
2022-10-05T20:43:39.576Z,9.82
2022-10-05T20:46:07.823Z,7.35
2022-10-05T20:48:36.330Z,9.68
2022-10-05T20:51:04.522Z,8.93
2022-10-05T20:53:32.566Z,8.10
2022-10-05T20:56:02.671Z,9.57
2022-10-05T20:58:31.107Z,8.25
2022-10-05T21:01:18.425Z,9.85
2022-10-05T21:03:46.805Z,11.57
2022-10-05T21:06:33.310Z,8.18
2022-10-05T21:09:21.700Z,8.93
2022-10-05T21:11:51.879Z,8.95
2022-10-05T21:14:20.122Z,7.88
2022-10-05T21:16:48.262Z,6.85
2022-10-05T21:22:43.524Z,6.97
2022-10-05T21:25:11.657Z,7.70
2022-10-05T21:27:40.111Z,8.13
2022-10-05T21:30:26.796Z,9.20
2022-10-05T21:33:13.204Z,8.48
2022-10-05T21:35:41.313Z,8.13
2022-10-05T21:38:09.639Z,8.27
2022-10-05T21:40:37.930Z,7.18
2022-10-05T21:43:06.128Z,8.13
2022-10-05T21:45:54.953Z,6.43
2022-10-05T21:48:23.785Z,7.07
2022-10-05T21:50:52.032Z,6.43
2022-10-05T21:53:25.613Z,6.97
2022-10-05T21:55:53.999Z,5.75
2022-10-05T22:01:09.338Z,6.65
2022-10-05T22:03:57.188Z,7.90
2022-10-05T22:06:44.413Z,7.95
2022-10-05T22:09:12.715Z,6.03
2022-10-05T22:11:40.795Z,8.45
2022-10-05T22:14:08.967Z,7.57
2022-10-05T22:16:39.094Z,6.35
2022-10-05T22:19:14.325Z,8.50
2022-10-05T22:21:42.605Z,7.25
2022-10-05T22:26:57.321Z,7.47
2022-10-05T22:29:25.513Z,7.47
2022-10-05T22:31:55.870Z,8.68
2022-10-05T22:34:24.350Z,7.47
2022-10-05T22:36:52.544Z,7.22
2022-10-05T22:39:20.613Z,6.85
2022-10-05T22:41:49.178Z,6.75
2022-10-05T22:44:36.416Z,6.53
2022-10-05T22:47:04.848Z,7.07
2022-10-05T22:49:32.912Z,7.72
2022-10-05T22:52:01.043Z,5.97
2022-10-05T22:54:47.789Z,5.55
2022-10-05T22:57:16.156Z,6.22
2022-10-05T23:00:03.152Z,5.80
2022-10-05T23:02:31.392Z,6.85
2022-10-05T23:04:59.538Z,5.70
2022-10-05T23:07:27.779Z,7.30
2022-10-05T23:09:55.854Z,6.85
2022-10-05T23:17:56.498Z,5.60
2022-10-05T23:20:24.994Z,5.47
2022-10-05T23:23:11.630Z,4.35
2022-10-05T23:25:39.694Z,6.57
2022-10-05T23:28:07.840Z,5.95
2022-10-05T23:30:36.105Z,5.22
2022-10-05T23:33:04.288Z,5.50
2022-10-05T23:36:16.641Z,5.47
2022-10-05T23:38:45.229Z,4.75
2022-10-05T23:41:14.132Z,6.40
2022-10-05T23:43:43.040Z,5.43
2022-10-05T23:46:12.291Z,5.35
2022-10-05T23:48:40.569Z,4.97
2022-10-05T23:51:10.662Z,5.32
2022-10-05T23:53:38.922Z,5.70
2022-10-05T23:56:07.401Z,5.13
2022-10-05T23:58:53.730Z,6.40
